createdAt,value
2018-09-27T00:00:36.447Z,11.21
2018-09-27T00:01:36.436Z,11.16
2018-09-27T00:02:36.425Z,11.17
2018-09-27T00:03:36.414Z,11.23
2018-09-27T00:04:36.404Z,11.30
2018-09-27T00:05:36.391Z,11.24
2018-09-27T00:06:36.379Z,11.12
2018-09-27T00:07:36.371Z,11.06
2018-09-27T00:08:36.359Z,11.08
2018-09-27T00:09:36.349Z,11.17
2018-09-27T00:10:36.338Z,11.03
2018-09-27T00:11:36.327Z,11.11
2018-09-27T00:12:36.314Z,11.21
2018-09-27T00:13:36.304Z,11.13
2018-09-27T00:14:36.292Z,11.17
2018-09-27T00:15:36.281Z,11.24
2018-09-27T00:16:36.271Z,11.20
2018-09-27T00:17:36.258Z,11.21
2018-09-27T00:18:36.248Z,11.19
2018-09-27T00:19:36.280Z,11.24
2018-09-27T00:20:36.225Z,11.11
2018-09-27T00:21:36.215Z,11.23
2018-09-27T00:22:36.202Z,11.20
2018-09-27T00:23:36.191Z,11.16
2018-09-27T00:24:36.178Z,11.20
2018-09-27T00:25:36.167Z,11.08
2018-09-27T00:26:36.157Z,11.13
2018-09-27T00:27:36.145Z,11.16
2018-09-27T00:28:36.133Z,11.16
2018-09-27T00:29:36.171Z,11.08
2018-09-27T00:30:36.110Z,11.16
2018-09-27T00:31:36.098Z,11.08
2018-09-27T00:32:36.086Z,11.08
2018-09-27T00:33:36.076Z,11.21
2018-09-27T00:34:36.063Z,11.16
2018-09-27T00:35:36.053Z,11.26
2018-09-27T00:36:36.041Z,11.13
2018-09-27T00:37:36.029Z,11.12
2018-09-27T00:38:36.018Z,11.01
2018-09-27T00:39:36.007Z,10.99
2018-09-27T00:40:35.995Z,10.98
2018-09-27T00:41:35.984Z,10.99
2018-09-27T00:42:35.972Z,10.99
2018-09-27T00:43:35.960Z,10.95
2018-09-27T00:44:35.948Z,11.01
2018-09-27T00:45:35.937Z,10.93
2018-09-27T00:46:35.926Z,10.87
2018-09-27T00:47:35.915Z,10.90
2018-09-27T00:48:35.903Z,10.86
2018-09-27T00:49:35.891Z,10.84
2018-09-27T00:50:35.880Z,10.83
2018-09-27T00:51:35.868Z,10.69
2018-09-27T00:52:35.857Z,10.81
2018-09-27T00:53:35.845Z,10.80
2018-09-27T00:54:35.834Z,10.80
2018-09-27T00:55:35.822Z,10.72
2018-09-27T00:56:35.810Z,10.68
2018-09-27T00:57:35.802Z,10.70
2018-09-27T00:58:35.788Z,10.73
2018-09-27T00:59:35.776Z,10.78
2018-09-27T01:00:35.763Z,10.87
2018-09-27T01:01:35.753Z,10.90
2018-09-27T01:02:35.741Z,10.78
2018-09-27T01:03:35.730Z,10.84
2018-09-27T01:04:35.717Z,10.76
2018-09-27T01:05:35.706Z,10.78
2018-09-27T01:06:35.694Z,10.80
2018-09-27T01:07:35.682Z,10.78
2018-09-27T01:08:35.671Z,10.81
2018-09-27T01:09:35.660Z,10.66
2018-09-27T01:10:35.647Z,10.81
2018-09-27T01:11:35.637Z,10.80
2018-09-27T01:12:35.625Z,10.75
2018-09-27T01:13:35.613Z,10.66
2018-09-27T01:14:35.603Z,10.75
2018-09-27T01:15:35.589Z,10.72
2018-09-27T01:16:35.577Z,10.70
2018-09-27T01:17:35.566Z,10.73
2018-09-27T01:18:35.554Z,10.70
2018-09-27T01:19:35.582Z,10.66
2018-09-27T01:20:35.530Z,10.66
2018-09-27T01:21:35.519Z,10.65
2018-09-27T01:22:35.508Z,10.69
2018-09-27T01:23:35.495Z,10.66
2018-09-27T01:24:35.483Z,10.66
2018-09-27T01:25:35.472Z,10.52
2018-09-27T01:26:35.460Z,10.51
2018-09-27T01:27:35.452Z,10.49
2018-09-27T01:28:35.437Z,10.55
2018-09-27T01:29:35.425Z,10.66
2018-09-27T01:30:35.414Z,10.51
2018-09-27T01:32:35.390Z,10.49
2018-09-27T01:33:35.378Z,10.57
2018-09-27T01:34:35.369Z,10.51
2018-09-27T01:35:35.355Z,10.44
2018-09-27T01:36:35.343Z,10.36
2018-09-27T01:37:35.332Z,10.35
2018-09-27T01:38:35.320Z,10.36
2018-09-27T01:39:35.308Z,10.43
2018-09-27T01:40:35.296Z,10.38
2018-09-27T01:41:35.285Z,10.38
2018-09-27T01:42:35.273Z,10.39
2018-09-27T01:43:35.265Z,10.36
2018-09-27T01:44:35.249Z,10.34
2018-09-27T01:45:35.237Z,10.43
2018-09-27T01:46:35.226Z,10.43
2018-09-27T01:47:35.215Z,10.39
2018-09-27T01:48:35.203Z,10.28
2018-09-27T01:49:35.196Z,10.22
2018-09-27T01:50:35.183Z,10.31
2018-09-27T01:51:35.167Z,10.31
2018-09-27T01:52:35.158Z,10.26
2018-09-27T01:53:35.143Z,10.28
2018-09-27T01:54:35.132Z,10.34
2018-09-27T01:55:35.121Z,10.35
2018-09-27T01:56:35.108Z,10.32
2018-09-27T01:57:35.096Z,10.28
2018-09-27T01:58:35.089Z,10.32
2018-09-27T01:59:35.073Z,10.28
2018-09-27T02:00:35.061Z,10.29
2018-09-27T02:01:35.048Z,10.31
2018-09-27T02:02:35.037Z,10.32
2018-09-27T02:03:35.026Z,10.29
2018-09-27T02:04:35.013Z,10.29
2018-09-27T02:05:35.001Z,10.29
2018-09-27T02:06:34.990Z,10.26
2018-09-27T02:07:34.979Z,10.29
2018-09-27T02:08:34.966Z,10.26
2018-09-27T02:09:34.955Z,10.34
2018-09-27T02:10:34.943Z,10.24
2018-09-27T02:43:34.550Z,9.95
2018-09-27T02:44:34.537Z,9.86
2018-09-27T02:45:34.529Z,9.81
2018-09-27T02:46:34.515Z,9.81
2018-09-27T02:47:34.501Z,9.78
2018-09-27T02:48:34.488Z,9.83
2018-09-27T02:49:34.482Z,9.80
2018-09-27T02:50:34.465Z,9.81
2018-09-27T02:51:34.453Z,9.88
2018-09-27T02:52:34.441Z,9.81
2018-09-27T02:53:34.429Z,9.81
2018-09-27T02:54:34.421Z,9.81
2018-09-27T02:55:34.406Z,9.83
2018-09-27T02:56:34.392Z,9.80
2018-09-27T02:57:34.380Z,9.81
2018-09-27T02:58:34.371Z,9.75
2018-09-27T02:59:34.357Z,9.75
2018-09-27T03:00:34.344Z,9.80
2018-09-27T03:01:34.332Z,9.83
2018-09-27T03:02:34.319Z,9.85
2018-09-27T03:03:34.308Z,9.73
2018-09-27T03:04:34.295Z,9.85
2018-09-27T03:05:34.284Z,9.83
2018-09-27T03:06:34.272Z,9.95
2018-09-27T03:07:34.261Z,9.80
2018-09-27T03:08:34.247Z,9.91
2018-09-27T03:09:34.236Z,9.91
2018-09-27T03:10:34.222Z,9.81
2018-09-27T03:11:34.211Z,9.81
2018-09-27T03:12:34.199Z,9.86
2018-09-27T03:13:34.187Z,9.89
2018-09-27T03:14:34.178Z,9.83
2018-09-27T03:15:34.162Z,9.85
2018-09-27T03:16:34.149Z,9.83
2018-09-27T03:17:34.139Z,9.74
2018-09-27T03:18:34.126Z,9.63
2018-09-27T03:19:34.113Z,9.60
2018-09-27T03:20:34.101Z,9.68
2018-09-27T03:21:34.090Z,9.71
2018-09-27T03:22:34.077Z,9.67
2018-09-27T03:23:34.066Z,9.65
2018-09-27T03:24:34.052Z,9.73
2018-09-27T03:25:34.040Z,9.65
2018-09-27T03:26:34.030Z,9.73
2018-09-27T03:27:34.016Z,9.62
2018-09-27T03:28:34.002Z,9.70
2018-09-27T03:29:33.991Z,9.74
2018-09-27T03:30:33.980Z,9.65
2018-09-27T03:31:33.967Z,9.67
2018-09-27T03:32:33.955Z,9.65
2018-09-27T03:33:33.942Z,9.68
2018-09-27T03:34:33.943Z,9.62
2018-09-27T03:35:33.919Z,9.58
2018-09-27T03:36:33.908Z,9.67
2018-09-27T03:37:33.894Z,9.67
2018-09-27T03:38:33.884Z,9.62
2018-09-27T03:39:33.934Z,9.74
2018-09-27T03:40:33.863Z,9.74
2018-09-27T03:41:33.845Z,9.63
2018-09-27T03:42:34.035Z,9.67
2018-09-27T03:43:33.821Z,9.59
2018-09-27T03:44:33.808Z,9.65
2018-09-27T03:45:33.796Z,9.67
2018-09-27T03:46:33.783Z,9.59
2018-09-27T03:47:33.773Z,9.63
2018-09-27T03:48:33.765Z,9.55
2018-09-27T03:49:33.746Z,9.58
2018-09-27T03:50:33.736Z,9.60
2018-09-27T03:51:33.723Z,9.55
2018-09-27T03:52:33.711Z,9.60
2018-09-27T03:53:33.698Z,9.60
2018-09-27T03:54:33.685Z,9.44
2018-09-27T03:55:33.675Z,9.55
2018-09-27T03:56:33.660Z,9.56
2018-09-27T03:57:33.648Z,9.55
2018-09-27T03:58:33.637Z,9.48
2018-09-27T03:59:33.624Z,9.50
2018-09-27T04:00:33.612Z,9.49
2018-09-27T04:01:33.599Z,9.41
2018-09-27T04:02:33.587Z,9.44
2018-09-27T04:03:33.574Z,9.37
2018-09-27T04:04:33.562Z,9.53
2018-09-27T04:05:33.555Z,9.48
2018-09-27T04:06:33.542Z,9.44
2018-09-27T04:07:33.534Z,9.50
2018-09-27T04:08:33.512Z,9.60
2018-09-27T04:09:33.499Z,9.58
2018-09-27T04:10:33.490Z,9.60
2018-09-27T04:11:33.479Z,9.50
2018-09-27T04:12:33.473Z,9.62
2018-09-27T04:13:33.450Z,9.59
2018-09-27T04:14:33.437Z,9.59
2018-09-27T04:15:33.425Z,9.63
2018-09-27T04:16:33.412Z,9.58
2018-09-27T04:17:33.400Z,9.52
2018-09-27T04:18:33.390Z,9.60
2018-09-27T04:19:33.376Z,9.60
2018-09-27T04:20:33.362Z,9.55
2018-09-27T04:21:33.350Z,9.42
2018-09-27T04:22:33.338Z,9.49
2018-09-27T04:23:33.326Z,9.52
2018-09-27T04:24:33.313Z,9.44
2018-09-27T04:25:33.301Z,9.55
2018-09-27T04:26:33.293Z,9.44
2018-09-27T04:27:33.279Z,9.38
2018-09-27T04:28:33.265Z,9.42
2018-09-27T04:29:33.252Z,9.50
2018-09-27T04:30:33.244Z,9.37
2018-09-27T04:31:33.229Z,9.44
2018-09-27T04:32:33.214Z,9.44
2018-09-27T04:33:33.202Z,9.59
2018-09-27T04:34:33.191Z,9.56
2018-09-27T04:35:33.180Z,9.53
2018-09-27T04:36:33.166Z,9.45
2018-09-27T04:37:33.155Z,9.55
2018-09-27T04:38:33.142Z,9.52
2018-09-27T04:39:33.131Z,9.53
2018-09-27T04:40:33.117Z,9.49
2018-09-27T04:41:33.105Z,9.44
2018-09-27T04:42:33.093Z,9.44
2018-09-27T04:43:33.081Z,9.41
2018-09-27T04:44:33.067Z,9.41
2018-09-27T04:45:33.054Z,9.37
2018-09-27T04:46:33.095Z,9.45
2018-09-27T04:47:33.030Z,9.40
2018-09-27T04:48:33.016Z,9.37
2018-09-27T04:49:33.004Z,9.32
2018-09-27T04:50:32.992Z,9.30
2018-09-27T04:51:32.980Z,9.27
2018-09-27T04:52:32.970Z,9.26
2018-09-27T04:53:32.953Z,9.30
2018-09-27T04:54:33.019Z,9.30
2018-09-27T04:55:32.929Z,9.23
2018-09-27T04:56:32.921Z,9.27
2018-09-27T04:57:32.905Z,9.27
2018-09-27T04:58:32.893Z,9.38
2018-09-27T04:59:32.881Z,9.38
2018-09-27T05:00:32.869Z,9.41
2018-09-27T05:01:32.854Z,9.48
2018-09-27T05:02:32.846Z,9.38
2018-09-27T05:03:32.829Z,9.50
2018-09-27T05:04:32.822Z,9.58
2018-09-27T05:05:32.809Z,9.60
2018-09-27T05:06:32.797Z,9.53
2018-09-27T05:07:32.783Z,9.68
2018-09-27T05:08:32.767Z,9.71
2018-09-27T05:09:32.875Z,9.71
2018-09-27T05:10:32.744Z,9.65
2018-09-27T05:11:32.732Z,9.81
2018-09-27T05:12:32.719Z,9.85
2018-09-27T05:13:32.707Z,9.75
2018-09-27T05:14:32.694Z,9.86
2018-09-27T05:15:32.740Z,9.80
2018-09-27T05:16:32.669Z,9.75
2018-09-27T05:17:32.658Z,9.80
2018-09-27T05:18:32.646Z,9.75
2018-09-27T05:19:32.632Z,9.88
2018-09-27T05:20:32.713Z,9.80
2018-09-27T05:21:32.665Z,9.85
2018-09-27T05:22:32.595Z,9.83
2018-09-27T05:23:32.582Z,9.91
2018-09-27T05:24:32.569Z,9.92
2018-09-27T05:25:32.556Z,9.98
2018-09-27T05:26:32.544Z,9.89
2018-09-27T05:27:32.584Z,9.92
2018-09-27T05:28:32.519Z,9.95
2018-09-27T05:29:32.507Z,9.98
2018-09-27T05:30:32.495Z,10.04
2018-09-27T05:31:32.483Z,9.95
2018-09-27T05:32:32.469Z,9.99
2018-09-27T05:33:32.481Z,10.07
2018-09-27T05:34:32.445Z,10.04
2018-09-27T05:35:32.435Z,10.10
2018-09-27T05:36:32.422Z,10.04
2018-09-27T05:37:32.409Z,9.98
2018-09-27T05:38:32.397Z,10.01
2018-09-27T05:39:32.439Z,10.02
2018-09-27T05:40:32.371Z,10.11
2018-09-27T05:41:32.359Z,10.09
2018-09-27T05:42:32.348Z,10.07
2018-09-27T05:43:32.336Z,10.01
2018-09-27T05:44:32.322Z,10.06
2018-09-27T05:45:32.384Z,10.02
2018-09-27T05:46:32.298Z,10.02
2018-09-27T05:47:32.291Z,10.07
2018-09-27T05:48:32.272Z,9.93
2018-09-27T05:49:32.261Z,9.96
2018-09-27T05:50:32.250Z,9.98
2018-09-27T05:51:32.287Z,9.93
2018-09-27T05:52:32.225Z,9.98
2018-09-27T05:53:32.212Z,9.98
2018-09-27T05:54:32.201Z,9.92
2018-09-27T05:55:32.189Z,9.95
2018-09-27T05:56:32.175Z,9.96
2018-09-27T05:57:32.214Z,9.95
2018-09-27T05:58:32.151Z,9.93
2018-09-27T05:59:32.139Z,9.95
2018-09-27T06:00:32.126Z,9.95
2018-09-27T06:01:32.114Z,9.98
2018-09-27T06:02:32.102Z,9.96
2018-09-27T06:03:32.138Z,9.98
2018-09-27T06:04:32.076Z,9.98
2018-09-27T06:05:32.066Z,9.96
2018-09-27T06:06:32.053Z,9.93
2018-09-27T06:07:32.041Z,10.02
2018-09-27T06:08:32.028Z,9.95
2018-09-27T06:09:32.077Z,10.04
2018-09-27T06:10:32.007Z,10.09
2018-09-27T06:11:32.056Z,10.14
2018-09-27T06:12:31.979Z,10.14
2018-09-27T06:13:31.967Z,10.24
2018-09-27T06:14:31.956Z,10.25
2018-09-27T06:15:32.002Z,10.16
2018-09-27T06:16:31.932Z,10.25
2018-09-27T06:17:31.919Z,10.24
2018-09-27T06:18:31.907Z,10.32
2018-09-27T06:19:31.928Z,10.26
2018-09-27T06:20:31.885Z,10.28
2018-09-27T06:21:31.955Z,10.35
2018-09-27T06:22:31.859Z,10.31
2018-09-27T06:23:31.848Z,10.43
2018-09-27T06:24:31.835Z,10.38
2018-09-27T06:25:31.823Z,10.38
2018-09-27T06:26:31.814Z,10.43
2018-09-27T06:27:31.913Z,10.34
2018-09-27T06:28:31.788Z,10.58
2018-09-27T06:29:31.776Z,10.57
2018-09-27T06:30:31.764Z,10.51
2018-09-27T06:31:31.753Z,10.62
2018-09-27T06:32:31.741Z,10.55
2018-09-27T06:33:31.783Z,10.52
2018-09-27T06:34:31.716Z,10.51
2018-09-27T06:35:31.706Z,10.55
2018-09-27T06:36:31.693Z,10.65
2018-09-27T06:37:31.681Z,10.60
2018-09-27T06:38:31.730Z,10.66
2018-09-27T06:39:31.659Z,10.65
2018-09-27T06:40:31.645Z,10.72
2018-09-27T06:41:31.639Z,10.73
2018-09-27T06:42:31.624Z,10.81
2018-09-27T06:43:31.611Z,10.86
2018-09-27T06:44:31.668Z,10.80
2018-09-27T06:45:31.588Z,10.73
2018-09-27T06:46:31.589Z,10.80
2018-09-27T06:47:31.564Z,10.95
2018-09-27T06:48:31.614Z,10.99
2018-09-27T06:49:31.541Z,10.94
2018-09-27T06:50:31.586Z,11.01
2018-09-27T06:51:31.519Z,10.98
2018-09-27T06:52:31.506Z,10.99
2018-09-27T06:53:31.499Z,11.02
2018-09-27T06:54:31.484Z,11.05
2018-09-27T06:55:31.572Z,11.06
2018-09-27T06:56:31.515Z,11.09
2018-09-27T06:57:31.449Z,11.13
2018-09-27T06:58:31.444Z,11.24
2018-09-27T06:59:31.426Z,11.24
2018-09-27T07:00:31.414Z,11.23
2018-09-27T07:01:31.404Z,11.26
2018-09-27T07:02:31.406Z,11.30
2018-09-27T07:03:31.383Z,11.21
2018-09-27T07:04:31.368Z,11.30
2018-09-27T07:05:31.357Z,11.36
2018-09-27T07:06:31.345Z,11.41
2018-09-27T07:07:31.334Z,11.33
2018-09-27T07:08:31.339Z,11.38
2018-09-27T07:09:31.311Z,11.48
2018-09-27T07:10:31.304Z,11.49
2018-09-27T07:11:31.289Z,11.54
2018-09-27T07:12:31.539Z,11.51
2018-09-27T07:13:31.267Z,11.62
2018-09-27T07:14:31.310Z,11.69
2018-09-27T07:15:31.272Z,11.74
2018-09-27T07:16:31.232Z,11.85
2018-09-27T07:17:31.222Z,11.81
2018-09-27T07:18:31.240Z,11.77
2018-09-27T07:19:31.200Z,11.98
2018-09-27T07:20:31.226Z,11.88
2018-09-27T07:21:31.177Z,11.85
2018-09-27T07:22:31.167Z,11.93
2018-09-27T07:23:31.155Z,11.93
2018-09-27T07:24:31.143Z,11.90
2018-09-27T07:25:31.132Z,11.94
2018-09-27T07:26:31.192Z,12.07
2018-09-27T07:27:31.111Z,12.12
2018-09-27T07:28:31.099Z,12.15
2018-09-27T07:29:31.089Z,12.23
2018-09-27T07:30:31.078Z,12.29
2018-09-27T07:31:31.067Z,12.29
2018-09-27T07:32:31.098Z,12.25
2018-09-27T07:33:31.045Z,12.19
2018-09-27T07:34:31.034Z,12.22
2018-09-27T07:35:31.023Z,12.22
2018-09-27T07:36:31.069Z,12.21
2018-09-27T07:37:31.015Z,12.26
2018-09-27T07:38:31.021Z,12.30
2018-09-27T07:39:30.979Z,12.41
2018-09-27T07:40:31.170Z,12.40
2018-09-27T07:41:30.957Z,12.44
2018-09-27T07:42:30.947Z,12.49
2018-09-27T07:43:30.936Z,12.54
2018-09-27T07:44:30.940Z,12.54
2018-09-27T07:45:30.914Z,12.59
2018-09-27T07:46:30.904Z,12.63
2018-09-27T07:47:30.893Z,12.67
2018-09-27T07:48:30.906Z,12.63
2018-09-27T07:49:30.871Z,12.74
2018-09-27T07:50:30.906Z,12.70
2018-09-27T07:51:30.851Z,12.76
2018-09-27T07:52:30.840Z,12.76
2018-09-27T07:53:30.829Z,12.79
2018-09-27T07:54:31.008Z,12.74
2018-09-27T07:55:30.808Z,12.73
2018-09-27T07:56:30.856Z,12.76
2018-09-27T07:57:30.789Z,12.76
2018-09-27T07:58:30.776Z,12.67
2018-09-27T07:59:30.767Z,12.69
2018-09-27T08:00:30.756Z,12.71
2018-09-27T08:01:30.744Z,12.77
2018-09-27T08:02:30.844Z,12.70
2018-09-27T08:03:30.727Z,12.73
2018-09-27T08:04:30.712Z,12.73
2018-09-27T08:05:30.702Z,12.73
2018-09-27T08:06:30.692Z,12.66
2018-09-27T08:07:30.683Z,12.66
2018-09-27T08:08:30.722Z,12.74
2018-09-27T08:09:30.664Z,12.76
2018-09-27T08:10:30.649Z,12.74
2018-09-27T08:11:30.710Z,12.87
2018-09-27T08:12:30.628Z,12.95
2018-09-27T08:13:30.618Z,13.03
2018-09-27T08:14:30.670Z,13.10
2018-09-27T08:15:30.597Z,13.14
2018-09-27T08:16:30.586Z,13.07
2018-09-27T08:17:30.576Z,13.13
2018-09-27T08:18:30.567Z,13.13
2018-09-27T08:19:30.555Z,13.28
2018-09-27T08:20:30.564Z,13.28
2018-09-27T08:21:30.535Z,13.29
2018-09-27T08:22:30.524Z,13.27
2018-09-27T08:23:30.513Z,13.41
2018-09-27T08:24:30.504Z,13.32
2018-09-27T08:25:30.492Z,13.50
2018-09-27T08:26:30.522Z,13.50
2018-09-27T08:27:30.473Z,13.63
2018-09-27T08:28:30.461Z,13.66
2018-09-27T08:29:30.451Z,13.71
2018-09-27T08:30:30.443Z,13.57
2018-09-27T08:31:30.432Z,13.55
2018-09-27T08:32:30.432Z,13.50
2018-09-27T08:33:30.410Z,13.61
2018-09-27T08:34:30.399Z,13.62
2018-09-27T08:35:30.390Z,13.73
2018-09-27T08:36:30.378Z,13.80
2018-09-27T08:37:30.369Z,13.88
2018-09-27T08:38:30.363Z,13.99
2018-09-27T08:39:30.349Z,14.02
2018-09-27T08:40:30.338Z,14.17
2018-09-27T08:41:30.329Z,14.19
2018-09-27T08:42:30.318Z,14.26
2018-09-27T08:43:30.308Z,14.19
2018-09-27T08:44:30.394Z,14.29
2018-09-27T08:45:30.502Z,14.30
2018-09-27T08:46:30.279Z,14.26
2018-09-27T08:47:30.268Z,14.36
2018-09-27T08:48:30.259Z,14.38
2018-09-27T08:49:30.247Z,14.54
2018-09-27T08:50:30.238Z,14.49
2018-09-27T08:51:30.256Z,14.59
2018-09-27T08:52:30.220Z,14.61
2018-09-27T08:53:30.208Z,14.74
2018-09-27T08:54:30.199Z,14.86
2018-09-27T08:55:30.314Z,14.90
2018-09-27T08:56:30.225Z,14.94
2018-09-27T08:57:30.189Z,14.97
2018-09-27T08:58:30.163Z,15.09
2018-09-27T08:59:30.151Z,15.13
2018-09-27T09:00:30.142Z,15.27
2018-09-27T09:01:30.191Z,15.33
2018-09-27T09:02:30.122Z,15.40
2018-09-27T09:03:30.137Z,15.34
2018-09-27T09:04:30.102Z,15.33
2018-09-27T09:05:30.097Z,15.37
2018-09-27T09:06:30.085Z,15.43
2018-09-27T09:07:30.124Z,15.49
2018-09-27T09:08:30.065Z,15.58
2018-09-27T09:09:30.124Z,15.58
2018-09-27T09:10:30.048Z,15.67
2018-09-27T09:11:30.039Z,15.78
2018-09-27T09:12:30.035Z,15.88
2018-09-27T09:13:30.057Z,15.98
2018-09-27T09:14:30.012Z,16.06
2018-09-27T09:15:30.036Z,16.13
2018-09-27T09:16:29.993Z,16.22
2018-09-27T09:17:29.984Z,16.22
2018-09-27T09:18:29.976Z,16.29
2018-09-27T09:19:29.978Z,16.42
2018-09-27T09:20:29.958Z,16.48
2018-09-27T09:21:30.026Z,16.52
2018-09-27T09:22:29.944Z,16.45
2018-09-27T09:23:29.934Z,16.59
2018-09-27T09:24:29.982Z,16.51
2018-09-27T09:25:29.934Z,16.63
2018-09-27T09:26:29.907Z,16.62
2018-09-27T09:27:29.913Z,16.81
2018-09-27T09:28:29.945Z,16.80
2018-09-27T09:29:29.960Z,16.85
2018-09-27T09:30:29.873Z,16.87
2018-09-27T09:31:29.865Z,16.96
2018-09-27T09:32:29.856Z,16.95
2018-09-27T09:33:29.883Z,17.12
2018-09-27T09:34:29.891Z,17.10
2018-09-27T09:35:29.870Z,17.28
2018-09-27T09:36:29.823Z,17.28
2018-09-27T09:37:29.815Z,17.38
2018-09-27T09:38:29.806Z,17.42
2018-09-27T09:39:29.800Z,17.46
2018-09-27T09:40:29.792Z,17.53
2018-09-27T09:41:29.784Z,17.49
2018-09-27T09:42:29.775Z,17.57
2018-09-27T09:43:29.767Z,17.63
2018-09-27T09:44:29.759Z,17.71
2018-09-27T09:45:29.753Z,17.80
2018-09-27T09:46:29.744Z,17.74
2018-09-27T09:47:29.736Z,17.80
2018-09-27T09:48:29.728Z,17.77
2018-09-27T09:49:29.728Z,17.84
2018-09-27T09:50:29.713Z,17.81
2018-09-27T09:51:29.706Z,17.94
2018-09-27T09:52:29.697Z,17.96
2018-09-27T09:53:29.690Z,17.99
2018-09-27T09:54:29.683Z,17.94
2018-09-27T09:55:29.679Z,18.09
2018-09-27T09:56:29.668Z,18.01
2018-09-27T09:57:29.660Z,18.10
2018-09-27T09:58:29.654Z,18.17
2018-09-27T09:59:29.647Z,18.13
2018-09-27T10:00:29.638Z,18.25
2018-09-27T10:01:29.630Z,18.23
2018-09-27T10:02:29.639Z,18.29
2018-09-27T10:03:29.617Z,18.35
2018-09-27T10:04:29.608Z,18.49
2018-09-27T10:05:29.602Z,18.57
2018-09-27T10:06:29.595Z,18.69
2018-09-27T10:07:29.588Z,18.82
2018-09-27T10:08:29.582Z,18.87
2018-09-27T10:09:29.574Z,18.91
2018-09-27T10:10:29.566Z,18.99
2018-09-27T10:11:29.560Z,19.10
2018-09-27T10:12:29.552Z,19.09
2018-09-27T10:13:29.546Z,19.10
2018-09-27T10:14:29.538Z,19.12
2018-09-27T10:15:29.532Z,19.16
2018-09-27T10:16:29.524Z,19.23
2018-09-27T10:17:29.518Z,19.34
2018-09-27T10:18:29.511Z,19.35
2018-09-27T10:19:29.509Z,19.30
2018-09-27T10:20:29.497Z,19.40
2018-09-27T10:21:29.495Z,19.45
2018-09-27T10:22:29.485Z,19.55
2018-09-27T10:23:29.480Z,19.61
2018-09-27T10:24:29.471Z,19.61
2018-09-27T10:25:29.466Z,19.72
2018-09-27T10:26:29.460Z,19.75
2018-09-27T10:27:29.462Z,19.82
2018-09-27T10:28:29.446Z,19.85
2018-09-27T10:29:29.469Z,19.95
2018-09-27T10:30:29.433Z,19.94
2018-09-27T10:31:29.428Z,19.95
2018-09-27T10:32:29.420Z,19.98
2018-09-27T10:33:29.415Z,20.01
2018-09-27T10:34:29.437Z,19.87
2018-09-27T10:35:29.402Z,19.92
2018-09-27T10:36:29.395Z,20.01
2018-09-27T10:37:29.391Z,20.16
2018-09-27T10:38:29.383Z,20.10
2018-09-27T10:39:29.378Z,20.13
2018-09-27T10:40:29.371Z,20.15
2018-09-27T10:41:29.365Z,20.23
2018-09-27T10:42:29.359Z,20.33
2018-09-27T10:43:29.353Z,20.30
2018-09-27T10:44:29.347Z,20.35
2018-09-27T10:45:29.347Z,20.31
2018-09-27T10:46:29.336Z,20.44
2018-09-27T10:47:29.331Z,20.42
2018-09-27T10:48:29.323Z,20.51
2018-09-27T10:49:29.318Z,20.57
2018-09-27T10:50:29.312Z,20.56
2018-09-27T10:51:29.326Z,20.66
2018-09-27T10:52:29.303Z,20.66
2018-09-27T10:53:29.300Z,20.71
2018-09-27T10:54:29.290Z,20.79
2018-09-27T10:55:29.285Z,20.90
2018-09-27T10:56:29.278Z,20.82
2018-09-27T10:57:29.272Z,20.83
2018-09-27T10:58:29.267Z,20.90
2018-09-27T10:59:29.277Z,20.85
2018-09-27T11:00:29.256Z,20.87
2018-09-27T11:01:29.250Z,20.90
2018-09-27T11:02:29.245Z,20.90
2018-09-27T11:03:29.240Z,20.91
2018-09-27T11:04:29.335Z,20.91
2018-09-27T11:05:29.235Z,20.97
2018-09-27T11:06:29.225Z,20.94
2018-09-27T11:07:29.218Z,20.96
2018-09-27T11:08:29.212Z,21.03
2018-09-27T11:09:29.206Z,21.01
2018-09-27T11:10:29.201Z,21.08
2018-09-27T11:11:29.264Z,21.12
2018-09-27T11:12:29.190Z,21.08
2018-09-27T11:13:29.185Z,21.18
2018-09-27T11:14:29.180Z,21.13
2018-09-27T11:15:29.179Z,21.22
2018-09-27T11:16:29.185Z,21.27
2018-09-27T11:17:29.164Z,21.26
2018-09-27T11:18:29.159Z,21.22
2018-09-27T11:19:29.157Z,21.34
2018-09-27T11:20:29.148Z,21.31
2018-09-27T11:21:29.144Z,21.37
2018-09-27T11:22:29.139Z,21.42
2018-09-27T11:23:29.136Z,21.37
2018-09-27T11:24:29.128Z,21.38
2018-09-27T11:25:29.123Z,21.43
2018-09-27T11:26:29.117Z,21.43
2018-09-27T11:27:29.117Z,21.49
2018-09-27T11:28:29.108Z,21.51
2018-09-27T11:29:29.103Z,21.53
2018-09-27T11:30:29.099Z,21.53
2018-09-27T11:31:29.095Z,21.55
2018-09-27T11:32:29.090Z,21.68
2018-09-27T11:33:29.084Z,21.77
2018-09-27T11:34:29.080Z,21.74
2018-09-27T11:35:29.075Z,21.86
2018-09-27T11:36:29.190Z,21.85
2018-09-27T11:37:29.065Z,21.90
2018-09-27T11:38:29.064Z,21.89
2018-09-27T11:39:29.056Z,21.93
2018-09-27T11:40:29.051Z,21.86
2018-09-27T11:41:29.048Z,21.83
2018-09-27T11:42:29.123Z,21.75
2018-09-27T11:43:29.039Z,21.79
2018-09-27T11:44:29.032Z,21.77
2018-09-27T11:45:29.028Z,21.75
2018-09-27T11:46:29.023Z,21.79
2018-09-27T11:47:29.019Z,21.83
2018-09-27T11:48:29.014Z,21.93
2018-09-27T11:49:29.053Z,21.96
2018-09-27T11:50:29.008Z,22.01
2018-09-27T11:51:29.000Z,22.05
2018-09-27T11:52:28.994Z,22.04
2018-09-27T11:53:28.990Z,22.17
2018-09-27T11:54:28.984Z,22.17
2018-09-27T11:55:28.981Z,22.21
2018-09-27T11:56:28.975Z,22.21
2018-09-27T11:57:28.971Z,22.17
2018-09-27T11:58:28.967Z,22.30
2018-09-27T11:59:28.963Z,22.31
2018-09-27T12:00:29.015Z,22.27
2018-09-27T12:01:28.982Z,22.29
2018-09-27T12:02:28.948Z,22.44
2018-09-27T12:03:28.944Z,22.45
2018-09-27T12:04:28.942Z,22.38
2018-09-27T12:05:28.935Z,22.44
2018-09-27T12:06:28.999Z,22.48
2018-09-27T12:07:28.992Z,22.41
2018-09-27T12:08:28.921Z,22.46
2018-09-27T12:09:28.917Z,22.44
2018-09-27T12:10:28.913Z,22.49
2018-09-27T12:11:28.909Z,22.49
2018-09-27T12:12:28.904Z,22.56
2018-09-27T12:13:28.909Z,22.56
2018-09-27T12:14:28.903Z,22.63
2018-09-27T12:15:28.893Z,22.70
2018-09-27T12:16:28.887Z,22.67
2018-09-27T12:17:28.887Z,22.64
2018-09-27T12:18:28.879Z,22.70
2018-09-27T12:19:28.904Z,22.66
2018-09-27T12:20:28.872Z,22.74
2018-09-27T12:21:28.867Z,22.72
2018-09-27T12:22:28.864Z,22.76
2018-09-27T12:23:28.860Z,22.82
2018-09-27T12:24:28.857Z,22.72
2018-09-27T12:25:28.904Z,22.79
2018-09-27T12:26:28.847Z,22.84
2018-09-27T12:27:28.844Z,22.88
2018-09-27T12:28:28.843Z,22.93
2018-09-27T12:29:28.834Z,22.91
2018-09-27T12:30:28.831Z,23.01
2018-09-27T12:31:28.828Z,22.96
2018-09-27T12:32:28.822Z,23.00
2018-09-27T12:33:28.817Z,22.99
2018-09-27T12:34:28.813Z,23.04
2018-09-27T12:35:28.810Z,23.11
2018-09-27T12:36:28.814Z,22.97
2018-09-27T12:37:28.803Z,23.11
2018-09-27T12:38:28.867Z,23.14
2018-09-27T12:39:28.809Z,23.14
2018-09-27T12:40:28.814Z,23.25
2018-09-27T12:41:28.857Z,23.16
2018-09-27T12:42:28.859Z,23.19
2018-09-27T12:43:28.779Z,23.15
2018-09-27T12:44:28.777Z,23.22
2018-09-27T12:45:28.874Z,23.23
2018-09-27T12:46:28.972Z,23.34
2018-09-27T12:47:28.763Z,23.42
2018-09-27T12:48:28.881Z,23.50
2018-09-27T12:49:28.755Z,23.47
2018-09-27T12:50:28.771Z,23.52
2018-09-27T12:51:28.856Z,23.50
2018-09-27T12:52:28.854Z,23.50
2018-09-27T12:53:28.740Z,23.56
2018-09-27T12:54:28.736Z,23.59
2018-09-27T12:55:28.735Z,23.64
2018-09-27T12:56:28.729Z,23.78
2018-09-27T12:57:28.726Z,23.78
2018-09-27T12:58:28.729Z,23.77
2018-09-27T12:59:28.720Z,23.78
2018-09-27T13:00:28.717Z,23.72
2018-09-27T13:01:28.735Z,23.75
2018-09-27T13:02:28.769Z,23.72
2018-09-27T13:03:28.708Z,23.74
2018-09-27T13:04:28.704Z,23.74
2018-09-27T13:05:28.697Z,23.77
2018-09-27T13:06:28.696Z,23.74
2018-09-27T13:07:28.690Z,23.72
2018-09-27T13:08:28.727Z,23.77
2018-09-27T13:09:28.828Z,23.75
2018-09-27T13:10:28.680Z,23.75
2018-09-27T13:11:28.678Z,23.79
2018-09-27T13:12:28.749Z,23.86
2018-09-27T13:13:28.884Z,23.97
2018-09-27T13:14:28.690Z,23.87
2018-09-27T13:15:28.664Z,23.99
2018-09-27T13:16:28.662Z,23.86
2018-09-27T13:17:28.715Z,23.89
2018-09-27T13:18:28.653Z,24.05
2018-09-27T13:19:28.743Z,23.99
2018-09-27T13:20:28.677Z,23.96
2018-09-27T13:21:28.698Z,24.05
2018-09-27T13:22:28.641Z,24.04
2018-09-27T13:23:28.637Z,24.09
2018-09-27T13:24:28.667Z,24.15
2018-09-27T13:25:28.662Z,24.09
2018-09-27T13:26:28.702Z,24.16
2018-09-27T13:27:28.624Z,24.27
2018-09-27T13:28:28.665Z,24.16
2018-09-27T13:29:28.617Z,24.15
2018-09-27T13:30:28.615Z,24.21
2018-09-27T13:31:28.611Z,24.18